sensor_id;sensor_type;location;lat;lon;timestamp;pressure;altitude;pressure_sealevel;temperature;humidity
23176;BME280;19910;42.652;23.332;2022-09-29T00:00:16;93766.50;;;15.42;82.42
23176;BME280;19910;42.652;23.332;2022-09-29T00:02:43;93771.19;;;15.45;82.64
23176;BME280;19910;42.652;23.332;2022-09-29T00:05:10;93783.69;;;15.50;83.24
23176;BME280;19910;42.652;23.332;2022-09-29T00:07:37;93777.44;;;15.46;83.36
23176;BME280;19910;42.652;23.332;2022-09-29T00:10:04;93761.03;;;15.42;83.37
23176;BME280;19910;42.652;23.332;2022-09-29T00:12:32;93764.56;;;15.43;83.22
23176;BME280;19910;42.652;23.332;2022-09-29T00:14:59;93772.00;;;15.49;83.33
23176;BME280;19910;42.652;23.332;2022-09-29T00:17:26;93755.72;;;15.56;82.28
23176;BME280;19910;42.652;23.332;2022-09-29T00:19:53;93774.50;;;15.69;81.83
23176;BME280;19910;42.652;23.332;2022-09-29T00:22:20;93773.25;;;15.59;82.73
23176;BME280;19910;42.652;23.332;2022-09-29T00:24:46;93767.34;;;15.53;82.58
23176;BME280;19910;42.652;23.332;2022-09-29T00:27:13;93750.19;;;15.53;82.40
23176;BME280;19910;42.652;23.332;2022-09-29T00:29:42;93748.69;;;15.55;82.33
23176;BME280;19910;42.652;23.332;2022-09-29T00:32:09;93767.28;;;15.46;82.88
23176;BME280;19910;42.652;23.332;2022-09-29T00:34:36;93764.97;;;15.48;83.19
23176;BME280;19910;42.652;23.332;2022-09-29T00:37:03;93756.38;;;15.46;82.82
23176;BME280;19910;42.652;23.332;2022-09-29T00:39:31;93751.59;;;15.33;83.61
23176;BME280;19910;42.652;23.332;2022-09-29T00:41:58;93760.94;;;15.32;83.82
23176;BME280;19910;42.652;23.332;2022-09-29T00:45:04;93758.22;;;15.32;83.86
23176;BME280;19910;42.652;23.332;2022-09-29T00:47:34;93752.66;;;15.14;83.99
23176;BME280;19910;42.652;23.332;2022-09-29T00:50:05;93753.03;;;15.12;84.63
23176;BME280;19910;42.652;23.332;2022-09-29T00:52:38;93774.81;;;15.09;85.05
23176;BME280;19910;42.652;23.332;2022-09-29T00:55:11;93761.50;;;15.04;85.23
23176;BME280;19910;42.652;23.332;2022-09-29T00:57:43;93743.47;;;14.88;85.84
23176;BME280;19910;42.652;23.332;2022-09-29T01:00:14;93751.09;;;14.72;87.42
23176;BME280;19910;42.652;23.332;2022-09-29T01:02:44;93758.94;;;14.77;87.01
23176;BME280;19910;42.652;23.332;2022-09-29T01:05:15;93767.50;;;14.79;86.78
23176;BME280;19910;42.652;23.332;2022-09-29T01:07:43;93772.94;;;14.76;86.50
23176;BME280;19910;42.652;23.332;2022-09-29T01:10:13;93759.28;;;14.72;86.60
23176;BME280;19910;42.652;23.332;2022-09-29T01:12:41;93757.25;;;14.62;87.72
23176;BME280;19910;42.652;23.332;2022-09-29T01:15:09;93759.34;;;14.42;88.63
23176;BME280;19910;42.652;23.332;2022-09-29T01:17:38;93756.13;;;14.33;88.71
23176;BME280;19910;42.652;23.332;2022-09-29T01:20:10;93759.22;;;14.32;89.43
23176;BME280;19910;42.652;23.332;2022-09-29T01:23:01;93752.06;;;14.20;89.49
23176;BME280;19910;42.652;23.332;2022-09-29T01:25:52;93732.31;;;13.93;90.99
23176;BME280;19910;42.652;23.332;2022-09-29T01:28:40;93748.72;;;14.00;91.36
23176;BME280;19910;42.652;23.332;2022-09-29T01:31:19;93754.16;;;14.00;91.23
23176;BME280;19910;42.652;23.332;2022-09-29T01:33:54;93759.19;;;13.98;91.91
23176;BME280;19910;42.652;23.332;2022-09-29T01:36:34;93760.16;;;13.83;92.94
23176;BME280;19910;42.652;23.332;2022-09-29T01:39:11;93768.66;;;13.78;92.89
23176;BME280;19910;42.652;23.332;2022-09-29T01:41:42;93780.28;;;13.75;93.26
23176;BME280;19910;42.652;23.332;2022-09-29T01:44:17;93786.50;;;13.75;93.43
23176;BME280;19910;42.652;23.332;2022-09-29T01:46:51;93771.38;;;13.78;93.59
23176;BME280;19910;42.652;23.332;2022-09-29T01:49:20;93777.88;;;13.70;93.72
23176;BME280;19910;42.652;23.332;2022-09-29T01:51:51;93778.81;;;13.55;93.92
23176;BME280;19910;42.652;23.332;2022-09-29T01:54:23;93793.69;;;13.61;93.89
23176;BME280;19910;42.652;23.332;2022-09-29T01:56:55;93778.94;;;13.62;94.33
23176;BME280;19910;42.652;23.332;2022-09-29T01:59:29;93777.56;;;13.48;94.74
23176;BME280;19910;42.652;23.332;2022-09-29T02:02:05;93781.66;;;13.62;94.95
23176;BME280;19910;42.652;23.332;2022-09-29T02:04:37;93784.78;;;13.64;94.87
23176;BME280;19910;42.652;23.332;2022-09-29T02:07:12;93787.19;;;13.69;94.19
23176;BME280;19910;42.652;23.332;2022-09-29T02:09:43;93790.25;;;13.64;94.98
23176;BME280;19910;42.652;23.332;2022-09-29T02:12:13;93783.16;;;13.59;94.94
23176;BME280;19910;42.652;23.332;2022-09-29T02:14:44;93784.09;;;13.70;94.20
23176;BME280;19910;42.652;23.332;2022-09-29T02:17:17;93795.03;;;13.74;94.24
23176;BME280;19910;42.652;23.332;2022-09-29T02:19:46;93779.97;;;13.80;93.68
23176;BME280;19910;42.652;23.332;2022-09-29T02:22:14;93782.47;;;13.92;92.46
23176;BME280;19910;42.652;23.332;2022-09-29T02:24:41;93802.97;;;13.86;92.81
23176;BME280;19910;42.652;23.332;2022-09-29T02:27:08;93796.69;;;13.82;93.39
23176;BME280;19910;42.652;23.332;2022-09-29T02:29:36;93795.81;;;13.74;93.48
23176;BME280;19910;42.652;23.332;2022-09-29T02:32:03;93807.50;;;13.75;94.43
23176;BME280;19910;42.652;23.332;2022-09-29T02:34:36;93804.88;;;13.82;94.84
23176;BME280;19910;42.652;23.332;2022-09-29T02:37:16;93797.44;;;13.79;94.42
23176;BME280;19910;42.652;23.332;2022-09-29T02:39:54;93789.06;;;13.91;93.02
23176;BME280;19910;42.652;23.332;2022-09-29T02:42:30;93797.66;;;13.93;92.88
23176;BME280;19910;42.652;23.332;2022-09-29T02:45:11;93809.28;;;13.90;93.12
23176;BME280;19910;42.652;23.332;2022-09-29T02:47:53;93783.84;;;13.79;93.39
23176;BME280;19910;42.652;23.332;2022-09-29T02:50:51;93797.13;;;13.84;93.13
23176;BME280;19910;42.652;23.332;2022-09-29T02:53:32;93813.41;;;13.80;93.85
23176;BME280;19910;42.652;23.332;2022-09-29T02:56:09;93806.34;;;13.76;93.95
23176;BME280;19910;42.652;23.332;2022-09-29T02:58:46;93793.00;;;13.67;93.92
23176;BME280;19910;42.652;23.332;2022-09-29T03:01:16;93805.19;;;13.77;94.14
23176;BME280;19910;42.652;23.332;2022-09-29T03:03:43;93792.81;;;13.83;93.68
23176;BME280;19910;42.652;23.332;2022-09-29T03:06:12;93790.53;;;13.85;93.75
23176;BME280;19910;42.652;23.332;2022-09-29T03:08:40;93765.00;;;13.97;92.48
23176;BME280;19910;42.652;23.332;2022-09-29T03:11:06;93742.19;;;14.08;91.63
23176;BME280;19910;42.652;23.332;2022-09-29T03:13:33;93742.72;;;14.17;90.39
23176;BME280;19910;42.652;23.332;2022-09-29T03:16:00;93760.53;;;14.11;90.50
23176;BME280;19910;42.652;23.332;2022-09-29T03:18:27;93757.31;;;14.02;90.69
23176;BME280;19910;42.652;23.332;2022-09-29T03:20:54;93766.94;;;13.96;90.67
23176;BME280;19910;42.652;23.332;2022-09-29T03:23:22;93770.78;;;13.92;90.78
23176;BME280;19910;42.652;23.332;2022-09-29T03:25:49;93784.25;;;13.81;91.38
23176;BME280;19910;42.652;23.332;2022-09-29T03:28:16;93781.22;;;13.86;91.13
23176;BME280;19910;42.652;23.332;2022-09-29T03:30:43;93785.22;;;13.96;90.25
23176;BME280;19910;42.652;23.332;2022-09-29T03:33:10;93786.75;;;13.93;89.95
23176;BME280;19910;42.652;23.332;2022-09-29T03:35:37;93792.09;;;13.86;89.88
23176;BME280;19910;42.652;23.332;2022-09-29T03:38:04;93771.22;;;13.97;89.78
23176;BME280;19910;42.652;23.332;2022-09-29T03:40:32;93770.38;;;14.19;88.60
23176;BME280;19910;42.652;23.332;2022-09-29T03:42:59;93779.44;;;14.31;87.91
23176;BME280;19910;42.652;23.332;2022-09-29T03:45:26;93787.09;;;14.21;87.77
23176;BME280;19910;42.652;23.332;2022-09-29T03:47:53;93811.53;;;14.14;88.27
23176;BME280;19910;42.652;23.332;2022-09-29T03:50:19;93822.88;;;13.90;90.42
23176;BME280;19910;42.652;23.332;2022-09-29T03:52:46;93817.53;;;13.71;91.84
23176;BME280;19910;42.652;23.332;2022-09-29T03:55:13;93803.50;;;13.69;92.29
23176;BME280;19910;42.652;23.332;2022-09-29T03:57:41;93796.50;;;13.68;92.70
23176;BME280;19910;42.652;23.332;2022-09-29T04:00:09;93794.09;;;13.63;92.84
23176;BME280;19910;42.652;23.332;2022-09-29T04:02:36;93800.28;;;13.60;93.05
23176;BME280;19910;42.652;23.332;2022-09-29T04:05:04;93798.19;;;13.49;94.24
23176;BME280;19910;42.652;23.332;2022-09-29T04:07:31;93805.22;;;13.50;93.67
23176;BME280;19910;42.652;23.332;2022-09-29T04:09:58;93820.56;;;13.39;95.33
23176;BME280;19910;42.652;23.332;2022-09-29T04:12:24;93813.16;;;13.36;95.75
23176;BME280;19910;42.652;23.332;2022-09-29T04:14:53;93805.97;;;13.25;95.94
23176;BME280;19910;42.652;23.332;2022-09-29T04:17:20;93809.88;;;13.27;95.94
23176;BME280;19910;42.652;23.332;2022-09-29T04:19:46;93798.63;;;13.06;96.83
23176;BME280;19910;42.652;23.332;2022-09-29T04:22:13;93801.78;;;13.08;97.24
23176;BME280;19910;42.652;23.332;2022-09-29T04:24:42;93797.16;;;13.12;96.98
23176;BME280;19910;42.652;23.332;2022-09-29T04:27:09;93814.09;;;13.02;98.09
23176;BME280;19910;42.652;23.332;2022-09-29T04:29:36;93810.22;;;13.03;98.15
23176;BME280;19910;42.652;23.332;2022-09-29T04:32:04;93793.44;;;12.97;97.89
23176;BME280;19910;42.652;23.332;2022-09-29T04:34:32;93802.91;;;13.07;97.30
23176;BME280;19910;42.652;23.332;2022-09-29T04:36:58;93814.94;;;13.06;98.04
23176;BME280;19910;42.652;23.332;2022-09-29T04:39:25;93808.72;;;13.28;96.69
23176;BME280;19910;42.652;23.332;2022-09-29T04:41:53;93793.97;;;13.29;96.43
23176;BME280;19910;42.652;23.332;2022-09-29T04:44:19;93794.09;;;13.36;95.85
23176;BME280;19910;42.652;23.332;2022-09-29T04:46:48;93803.09;;;13.40;96.04
23176;BME280;19910;42.652;23.332;2022-09-29T04:49:17;93794.28;;;14.03;94.33
23176;BME280;19910;42.652;23.332;2022-09-29T04:51:44;93797.66;;;14.27;91.76
23176;BME280;19910;42.652;23.332;2022-09-29T04:54:11;93799.06;;;14.13;91.26
23176;BME280;19910;42.652;23.332;2022-09-29T04:56:38;93796.53;;;14.28;91.66
23176;BME280;19910;42.652;23.332;2022-09-29T04:59:04;93797.63;;;15.34;87.61
23176;BME280;19910;42.652;23.332;2022-09-29T05:01:31;93794.59;;;17.02;80.90
23176;BME280;19910;42.652;23.332;2022-09-29T05:03:59;93768.03;;;17.73;74.87
23176;BME280;19910;42.652;23.332;2022-09-29T05:06:27;93761.13;;;18.49;71.57
23176;BME280;19910;42.652;23.332;2022-09-29T05:08:54;93759.47;;;18.80;70.44
23176;BME280;19910;42.652;23.332;2022-09-29T05:11:21;93762.00;;;19.12;69.01
23176;BME280;19910;42.652;23.332;2022-09-29T05:13:48;93769.56;;;18.94;69.37
23176;BME280;19910;42.652;23.332;2022-09-29T05:16:17;93760.25;;;19.36;67.23
23176;BME280;19910;42.652;23.332;2022-09-29T05:18:44;93748.78;;;18.96;67.97
23176;BME280;19910;42.652;23.332;2022-09-29T05:21:11;93760.56;;;18.93;68.52
23176;BME280;19910;42.652;23.332;2022-09-29T05:23:39;93769.34;;;19.77;66.79
23176;BME280;19910;42.652;23.332;2022-09-29T05:26:08;93766.34;;;21.31;61.81
23176;BME280;19910;42.652;23.332;2022-09-29T05:28:35;93753.72;;;22.04;59.36
23176;BME280;19910;42.652;23.332;2022-09-29T05:31:03;93740.41;;;23.17;55.90
23176;BME280;19910;42.652;23.332;2022-09-29T05:33:30;93751.28;;;23.24;54.66
23176;BME280;19910;42.652;23.332;2022-09-29T05:35:58;93749.50;;;22.98;54.60
23176;BME280;19910;42.652;23.332;2022-09-29T05:38:25;93754.25;;;23.66;53.65
23176;BME280;19910;42.652;23.332;2022-09-29T05:40:53;93765.75;;;22.37;56.02
23176;BME280;19910;42.652;23.332;2022-09-29T05:43:20;93779.78;;;21.52;58.92
23176;BME280;19910;42.652;23.332;2022-09-29T05:45:48;93767.41;;;21.10;59.53
23176;BME280;19910;42.652;23.332;2022-09-29T05:48:14;93783.22;;;21.83;58.18
23176;BME280;19910;42.652;23.332;2022-09-29T05:50:42;93791.91;;;21.82;55.70
23176;BME280;19910;42.652;23.332;2022-09-29T05:53:10;93794.38;;;22.23;55.46
23176;BME280;19910;42.652;23.332;2022-09-29T05:55:37;93781.19;;;21.10;57.49
23176;BME280;19910;42.652;23.332;2022-09-29T05:58:05;93790.66;;;20.48;59.29
23176;BME280;19910;42.652;23.332;2022-09-29T06:00:33;93795.41;;;20.44;59.65
23176;BME280;19910;42.652;23.332;2022-09-29T06:03:01;93793.25;;;21.47;57.13
23176;BME280;19910;42.652;23.332;2022-09-29T06:05:28;93796.78;;;22.21;54.90
23176;BME280;19910;42.652;23.332;2022-09-29T06:07:54;93802.91;;;22.72;53.83
23176;BME280;19910;42.652;23.332;2022-09-29T06:10:21;93809.06;;;23.19;51.76
23176;BME280;19910;42.652;23.332;2022-09-29T06:12:48;93822.22;;;22.52;53.27
23176;BME280;19910;42.652;23.332;2022-09-29T06:15:16;93810.97;;;21.46;56.51
23176;BME280;19910;42.652;23.332;2022-09-29T06:17:44;93809.16;;;21.36;57.74
23176;BME280;19910;42.652;23.332;2022-09-29T06:20:11;93805.59;;;21.39;56.34
23176;BME280;19910;42.652;23.332;2022-09-29T06:22:37;93802.44;;;21.63;55.64
23176;BME280;19910;42.652;23.332;2022-09-29T06:25:05;93810.25;;;22.58;54.66
23176;BME280;19910;42.652;23.332;2022-09-29T06:27:32;93804.53;;;24.42;49.66
23176;BME280;19910;42.652;23.332;2022-09-29T06:29:59;93801.66;;;25.03;48.43
23176;BME280;19910;42.652;23.332;2022-09-29T06:32:27;93791.31;;;24.62;48.43
23176;BME280;19910;42.652;23.332;2022-09-29T06:34:54;93799.88;;;24.39;49.37
23176;BME280;19910;42.652;23.332;2022-09-29T06:37:42;93802.53;;;25.67;45.75
23176;BME280;19910;42.652;23.332;2022-09-29T06:40:11;93795.78;;;26.97;43.17
23176;BME280;19910;42.652;23.332;2022-09-29T06:42:38;93803.88;;;27.35;43.23
23176;BME280;19910;42.652;23.332;2022-09-29T06:45:06;93798.13;;;25.03;45.94
23176;BME280;19910;42.652;23.332;2022-09-29T06:47:34;93817.84;;;23.50;49.64
23176;BME280;19910;42.652;23.332;2022-09-29T06:50:01;93818.97;;;22.96;51.97
23176;BME280;19910;42.652;23.332;2022-09-29T06:52:28;93816.69;;;22.09;53.77
23176;BME280;19910;42.652;23.332;2022-09-29T06:54:55;93828.47;;;22.13;53.38
23176;BME280;19910;42.652;23.332;2022-09-29T06:57:22;93823.09;;;20.94;58.51
23176;BME280;19910;42.652;23.332;2022-09-29T06:59:49;93832.94;;;21.53;56.28
23176;BME280;19910;42.652;23.332;2022-09-29T07:02:16;93838.31;;;21.87;55.42
23176;BME280;19910;42.652;23.332;2022-09-29T07:04:44;93846.59;;;21.60;55.88
23176;BME280;19910;42.652;23.332;2022-09-29T07:07:13;93851.69;;;21.35;56.31
23176;BME280;19910;42.652;23.332;2022-09-29T07:09:40;93855.44;;;21.48;55.51
23176;BME280;19910;42.652;23.332;2022-09-29T07:12:08;93845.25;;;20.09;59.55
23176;BME280;19910;42.652;23.332;2022-09-29T07:14:35;93852.75;;;20.05;60.26
23176;BME280;19910;42.652;23.332;2022-09-29T07:17:02;93854.38;;;20.43;59.65
23176;BME280;19910;42.652;23.332;2022-09-29T07:19:30;93844.47;;;20.49;60.21
23176;BME280;19910;42.652;23.332;2022-09-29T07:21:58;93828.44;;;21.05;58.18
23176;BME280;19910;42.652;23.332;2022-09-29T07:24:25;93838.81;;;21.55;56.62
23176;BME280;19910;42.652;23.332;2022-09-29T07:26:52;93841.13;;;20.99;57.31
23176;BME280;19910;42.652;23.332;2022-09-29T07:29:19;93836.22;;;20.49;59.67
23176;BME280;19910;42.652;23.332;2022-09-29T07:31:45;93829.34;;;20.65;58.82
23176;BME280;19910;42.652;23.332;2022-09-29T07:34:16;93838.16;;;20.86;58.33
23176;BME280;19910;42.652;23.332;2022-09-29T07:36:43;93837.56;;;21.33;58.43
23176;BME280;19910;42.652;23.332;2022-09-29T07:39:11;93843.28;;;21.15;58.02
23176;BME280;19910;42.652;23.332;2022-09-29T07:41:38;93836.97;;;20.87;59.45
23176;BME280;19910;42.652;23.332;2022-09-29T07:44:05;93849.66;;;20.40;58.95
23176;BME280;19910;42.652;23.332;2022-09-29T07:46:32;93832.44;;;20.70;58.68
23176;BME280;19910;42.652;23.332;2022-09-29T07:48:59;93848.66;;;20.95;57.58
23176;BME280;19910;42.652;23.332;2022-09-29T07:51:26;93840.81;;;21.24;57.34
23176;BME280;19910;42.652;23.332;2022-09-29T07:53:53;93849.28;;;20.76;58.23
23176;BME280;19910;42.652;23.332;2022-09-29T07:56:22;93857.63;;;20.28;59.21
23176;BME280;19910;42.652;23.332;2022-09-29T07:58:49;93866.00;;;20.17;60.11
23176;BME280;19910;42.652;23.332;2022-09-29T08:01:17;93864.28;;;19.85;60.85
23176;BME280;19910;42.652;23.332;2022-09-29T08:03:49;93863.66;;;19.67;61.37
23176;BME280;19910;42.652;23.332;2022-09-29T08:06:16;93864.66;;;19.87;62.46
23176;BME280;19910;42.652;23.332;2022-09-29T08:08:43;93877.97;;;20.41;59.43
23176;BME280;19910;42.652;23.332;2022-09-29T08:11:13;93877.75;;;20.21;60.40
23176;BME280;19910;42.652;23.332;2022-09-29T08:13:41;93875.78;;;20.63;59.65
23176;BME280;19910;42.652;23.332;2022-09-29T08:16:11;93881.06;;;20.46;59.12
23176;BME280;19910;42.652;23.332;2022-09-29T08:18:39;93879.16;;;20.77;59.67
23176;BME280;19910;42.652;23.332;2022-09-29T08:21:07;93878.94;;;20.95;58.91
23176;BME280;19910;42.652;23.332;2022-09-29T08:23:34;93878.03;;;20.30;60.33
23176;BME280;19910;42.652;23.332;2022-09-29T08:26:03;93878.19;;;20.16;61.17
23176;BME280;19910;42.652;23.332;2022-09-29T08:28:32;93885.34;;;20.06;62.15
23176;BME280;19910;42.652;23.332;2022-09-29T08:31:05;93883.22;;;19.76;62.29
23176;BME280;19910;42.652;23.332;2022-09-29T08:33:33;93878.31;;;19.98;62.12
23176;BME280;19910;42.652;23.332;2022-09-29T08:36:00;93884.59;;;19.99;61.50
23176;BME280;19910;42.652;23.332;2022-09-29T08:38:28;93886.97;;;19.97;61.62
23176;BME280;19910;42.652;23.332;2022-09-29T08:40:56;93888.66;;;19.83;62.80
23176;BME280;19910;42.652;23.332;2022-09-29T08:43:25;93888.75;;;20.21;61.61
23176;BME280;19910;42.652;23.332;2022-09-29T08:45:59;93889.44;;;20.32;61.45
23176;BME280;19910;42.652;23.332;2022-09-29T08:48:33;93892.31;;;20.63;59.96
23176;BME280;19910;42.652;23.332;2022-09-29T08:51:04;93878.03;;;20.30;60.73
23176;BME280;19910;42.652;23.332;2022-09-29T08:53:35;93874.81;;;20.42;60.46
23176;BME280;19910;42.652;23.332;2022-09-29T08:56:06;93881.81;;;20.06;61.67
23176;BME280;19910;42.652;23.332;2022-09-29T08:58:37;93876.31;;;20.06;62.26
23176;BME280;19910;42.652;23.332;2022-09-29T09:01:17;93876.91;;;20.24;61.48
23176;BME280;19910;42.652;23.332;2022-09-29T09:04:19;93873.22;;;20.45;61.22
23176;BME280;19910;42.652;23.332;2022-09-29T09:07:00;93873.72;;;20.36;62.12
23176;BME280;19910;42.652;23.332;2022-09-29T09:09:54;93871.78;;;20.26;62.84
23176;BME280;19910;42.652;23.332;2022-09-29T09:12:31;93872.28;;;20.58;60.88
23176;BME280;19910;42.652;23.332;2022-09-29T09:18:28;93870.53;;;20.38;60.56
23176;BME280;19910;42.652;23.332;2022-09-29T09:21:05;93867.28;;;20.84;59.99
23176;BME280;19910;42.652;23.332;2022-09-29T09:23:41;93869.81;;;21.02;58.10
23176;BME280;19910;42.652;23.332;2022-09-29T09:26:14;93875.63;;;21.07;58.42
23176;BME280;19910;42.652;23.332;2022-09-29T09:28:43;93878.63;;;21.23;57.83
23176;BME280;19910;42.652;23.332;2022-09-29T09:31:18;93872.19;;;21.34;57.06
23176;BME280;19910;42.652;23.332;2022-09-29T09:33:49;93874.59;;;21.32;58.10
23176;BME280;19910;42.652;23.332;2022-09-29T09:36:27;93866.59;;;21.41;57.60
23176;BME280;19910;42.652;23.332;2022-09-29T09:38:59;93875.50;;;21.21;57.50
23176;BME280;19910;42.652;23.332;2022-09-29T09:41:29;93865.09;;;21.02;58.75
23176;BME280;19910;42.652;23.332;2022-09-29T09:44:00;93858.63;;;20.85;58.51
23176;BME280;19910;42.652;23.332;2022-09-29T09:46:31;93856.00;;;21.05;57.38
23176;BME280;19910;42.652;23.332;2022-09-29T09:49:04;93856.00;;;21.36;55.16
23176;BME280;19910;42.652;23.332;2022-09-29T09:51:40;93862.09;;;21.23;55.25
23176;BME280;19910;42.652;23.332;2022-09-29T09:54:11;93857.91;;;21.69;54.66
23176;BME280;19910;42.652;23.332;2022-09-29T09:56:49;93853.47;;;21.75;49.86
23176;BME280;19910;42.652;23.332;2022-09-29T09:59:31;93862.59;;;21.95;52.39
23176;BME280;19910;42.652;23.332;2022-09-29T10:02:01;93866.34;;;22.09;49.56
23176;BME280;19910;42.652;23.332;2022-09-29T10:04:28;93867.19;;;22.29;49.09
23176;BME280;19910;42.652;23.332;2022-09-29T10:07:22;93867.28;;;22.45;47.15
23176;BME280;19910;42.652;23.332;2022-09-29T10:09:50;93860.16;;;22.48;47.74
23176;BME280;19910;42.652;23.332;2022-09-29T10:12:19;93854.47;;;22.35;48.70
23176;BME280;19910;42.652;23.332;2022-09-29T10:14:51;93856.16;;;22.06;49.54
23176;BME280;19910;42.652;23.332;2022-09-29T10:17:22;93858.53;;;22.04;51.08
23176;BME280;19910;42.652;23.332;2022-09-29T10:19:55;93861.13;;;21.87;50.83
23176;BME280;19910;42.652;23.332;2022-09-29T10:22:25;93862.69;;;21.88;51.24
23176;BME280;19910;42.652;23.332;2022-09-29T10:24:53;93860.22;;;21.97;50.97
23176;BME280;19910;42.652;23.332;2022-09-29T10:27:23;93871.47;;;21.83;50.71
23176;BME280;19910;42.652;23.332;2022-09-29T10:29:52;93865.03;;;21.90;49.40
23176;BME280;19910;42.652;23.332;2022-09-29T10:32:26;93875.09;;;22.04;49.71
23176;BME280;19910;42.652;23.332;2022-09-29T10:35:05;93875.84;;;22.08;49.20
23176;BME280;19910;42.652;23.332;2022-09-29T10:37:36;93876.47;;;22.15;48.52
23176;BME280;19910;42.652;23.332;2022-09-29T10:40:15;93872.38;;;22.27;48.34
23176;BME280;19910;42.652;23.332;2022-09-29T10:42:44;93866.66;;;22.38;47.43
23176;BME280;19910;42.652;23.332;2022-09-29T10:45:15;93865.63;;;22.51;46.20
23176;BME280;19910;42.652;23.332;2022-09-29T10:47:45;93869.38;;;22.61;45.93
23176;BME280;19910;42.652;23.332;2022-09-29T10:50:15;93864.38;;;22.76;47.06
23176;BME280;19910;42.652;23.332;2022-09-29T10:52:48;93860.41;;;23.16;46.21
23176;BME280;19910;42.652;23.332;2022-09-29T10:55:19;93856.00;;;23.38;45.48
23176;BME280;19910;42.652;23.332;2022-09-29T10:57:47;93853.16;;;23.62;43.46
23176;BME280;19910;42.652;23.332;2022-09-29T11:00:25;93843.50;;;24.02;44.50
23176;BME280;19910;42.652;23.332;2022-09-29T11:03:00;93850.41;;;24.10;44.46
23176;BME280;19910;42.652;23.332;2022-09-29T11:05:28;93836.38;;;24.34;44.11
23176;BME280;19910;42.652;23.332;2022-09-29T11:07:57;93832.94;;;24.46;42.77
23176;BME280;19910;42.652;23.332;2022-09-29T11:10:28;93830.41;;;24.80;42.44
23176;BME280;19910;42.652;23.332;2022-09-29T11:12:54;93835.69;;;25.04;42.68
23176;BME280;19910;42.652;23.332;2022-09-29T11:15:27;93831.69;;;25.46;41.85
23176;BME280;19910;42.652;23.332;2022-09-29T11:17:55;93825.25;;;25.49;41.99
23176;BME280;19910;42.652;23.332;2022-09-29T11:20:25;93820.09;;;25.10;41.03
23176;BME280;19910;42.652;23.332;2022-09-29T11:23:14;93833.41;;;25.15;41.75
23176;BME280;19910;42.652;23.332;2022-09-29T11:26:06;93820.03;;;25.52;40.60
23176;BME280;19910;42.652;23.332;2022-09-29T11:29:03;93815.84;;;25.72;39.65
23176;BME280;19910;42.652;23.332;2022-09-29T11:31:50;93808.72;;;25.59;39.73
23176;BME280;19910;42.652;23.332;2022-09-29T11:34:40;93815.75;;;25.76;39.35
23176;BME280;19910;42.652;23.332;2022-09-29T11:37:23;93815.03;;;25.97;39.29
23176;BME280;19910;42.652;23.332;2022-09-29T11:40:01;93813.56;;;26.31;39.81
23176;BME280;19910;42.652;23.332;2022-09-29T11:42:44;93808.75;;;25.97;39.76
23176;BME280;19910;42.652;23.332;2022-09-29T11:45:18;93821.72;;;25.87;39.38
23176;BME280;19910;42.652;23.332;2022-09-29T11:48:13;93818.06;;;25.77;39.04
23176;BME280;19910;42.652;23.332;2022-09-29T11:50:53;93815.72;;;26.01;39.71
23176;BME280;19910;42.652;23.332;2022-09-29T11:53:44;93813.50;;;26.09;38.94
23176;BME280;19910;42.652;23.332;2022-09-29T11:56:24;93812.69;;;26.34;39.99
23176;BME280;19910;42.652;23.332;2022-09-29T12:02:23;93814.63;;;25.86;39.33
23176;BME280;19910;42.652;23.332;2022-09-29T12:04:56;93807.72;;;26.03;40.11
23176;BME280;19910;42.652;23.332;2022-09-29T12:07:35;93804.09;;;26.41;39.21
23176;BME280;19910;42.652;23.332;2022-09-29T12:13:17;93804.06;;;25.94;39.24
23176;BME280;19910;42.652;23.332;2022-09-29T12:15:51;93809.97;;;25.83;39.35
23176;BME280;19910;42.652;23.332;2022-09-29T12:18:21;93806.41;;;25.95;38.92
23176;BME280;19910;42.652;23.332;2022-09-29T12:20:52;93802.47;;;26.31;39.19
23176;BME280;19910;42.652;23.332;2022-09-29T12:23:23;93794.50;;;26.54;38.41
23176;BME280;19910;42.652;23.332;2022-09-29T12:25:56;93805.69;;;26.85;38.06
23176;BME280;19910;42.652;23.332;2022-09-29T12:28:29;93811.50;;;26.57;37.60
23176;BME280;19910;42.652;23.332;2022-09-29T12:31:00;93814.09;;;26.26;38.49
23176;BME280;19910;42.652;23.332;2022-09-29T12:33:33;93814.09;;;26.38;38.35
23176;BME280;19910;42.652;23.332;2022-09-29T12:36:13;93830.75;;;26.26;37.20
23176;BME280;19910;42.652;23.332;2022-09-29T12:39:02;93827.34;;;26.34;38.67
23176;BME280;19910;42.652;23.332;2022-09-29T12:41:33;93826.13;;;26.23;37.21
23176;BME280;19910;42.652;23.332;2022-09-29T12:44:07;93824.34;;;26.29;38.53
23176;BME280;19910;42.652;23.332;2022-09-29T12:46:43;93823.59;;;26.03;39.07
23176;BME280;19910;42.652;23.332;2022-09-29T12:49:17;93811.78;;;26.24;38.48
23176;BME280;19910;42.652;23.332;2022-09-29T12:51:46;93810.59;;;26.60;39.03
23176;BME280;19910;42.652;23.332;2022-09-29T12:54:17;93810.97;;;26.49;37.52
23176;BME280;19910;42.652;23.332;2022-09-29T12:56:51;93815.88;;;26.45;38.03
23176;BME280;19910;42.652;23.332;2022-09-29T12:59:28;93810.47;;;26.16;38.49
23176;BME280;19910;42.652;23.332;2022-09-29T13:02:00;93814.81;;;26.04;38.92
23176;BME280;19910;42.652;23.332;2022-09-29T13:04:57;93821.47;;;26.19;38.07
23176;BME280;19910;42.652;23.332;2022-09-29T13:07:58;93815.56;;;26.17;38.55
23176;BME280;19910;42.652;23.332;2022-09-29T13:10:54;93825.28;;;25.75;38.66
23176;BME280;19910;42.652;23.332;2022-09-29T13:16:55;93815.22;;;25.14;40.70
23176;BME280;19910;42.652;23.332;2022-09-29T13:25:43;93829.72;;;25.05;41.54
23176;BME280;19910;42.652;23.332;2022-09-29T13:28:22;93822.38;;;25.40;40.90
23176;BME280;19910;42.652;23.332;2022-09-29T13:30:51;93825.78;;;25.44;40.66